Meteo4 di Emilio Bellavite Il primo osservatorio Meteo di Verona  
 
giovedì 17 agosto 2017
 
 
dati in tempo reale
Di seguito i dati in tempo reale delle stazioni on line, suddivise per regione, della rete di Meteo4. Cliccando sul link della stazione, ove presente, si accederà al sito web personale.
Stazioni online
Regione -
Località Giorno Ora Temp. Umid. Relat. Dew Point Press. Atm. Velocità Vento Direz. Vento Precip. Temp.
Min
Temp.
Max
 
 
Regione ABRUZZO
Località Giorno Ora Temp. Umid. Relat. Dew Point Press. Atm. Velocità Vento Direz. Vento Precip. Temp.
Min
Temp.
Max
San Salvo3 (CH) 16/08/17 20.46 24.8 °C 59 % 16.3 °C 1013.6 hPa 4.8 Km/h NNW 0.0 mm  19.4 °C 30.6 °C
Vasto (CH) 17/08/17 01.09 23.4 °C 10 % -9.9 °C 1016.2 hPa 1.9 Km/h SW 0.0 mm  23.4 °C 23.8 °C
 
 
Regione BASILICATA
Località Giorno Ora Temp. Umid. Relat. Dew Point Press. Atm. Velocità Vento Direz. Vento Precip. Temp.
Min
Temp.
Max
Miglionico (MT) 17/08/17 05.30 20.6 °C 54 % 11.0 °C 1012.4 hPa 16.1 Km/h NW 0.0 mm  19.3 °C 23.6 °C
 
 
Regione CALABRIA
Località Giorno Ora Temp. Umid. Relat. Dew Point Press. Atm. Velocità Vento Direz. Vento Precip. Temp.
Min
Temp.
Max
Bisignano (CS) 17/08/17 05.33 22.0 °C 55 % 12.6 °C 1011.9 hPa 2.0 Km/h SW 0.0 mm  21.5 °C 24.2 °C
Savelli (KR) 17/08/17 05.09 20.0 °C 52 % 9.8 °C 1013.4 hPa 7.6 Km/h WSW 0.0 mm  19.9 °C 21.6 °C
 
 
Regione CAMPANIA
Località Giorno Ora Temp. Umid. Relat. Dew Point Press. Atm. Velocità Vento Direz. Vento Precip. Temp.
Min
Temp.
Max
Torre Annunziata (NA) 17/08/17 05.35 25.4 °C 64 % 18.1 °C 1015.1 hPa 0.0 Km/h NNW 0.0 mm  25.3 °C 25.7 °C
 
 
Regione EMILIA ROMAGNA
Località Giorno Ora Temp. Umid. Relat. Dew Point Press. Atm. Velocità Vento Direz. Vento Precip. Temp.
Min
Temp.
Max
Bellaria Igea Marina (RN) 17/08/17 05.33 20.9 °C 73 % 15.9 °C 1016.0 hPa 3.2 Km/h WSW 0.0 mm  20.9 °C 24.3 °C
Bellaria Igea Marina2 (RN) 17/08/17 05.33 21.1 °C 76 % 16.7 °C 1015.6 hPa 3.2 Km/h W 0.0 mm  21.1 °C 24.4 °C
Carpi (MO) 17/08/17 05.33 21.4 °C 75 % 16.8 °C 1016.6 hPa 0.0 Km/h SE 0.0 mm  21.3 °C 25.3 °C
Filo di Argenta (FE) 17/08/17 05.35 21.2 °C 83 % 18.2 °C 1017.0 hPa 4.5 Km/h NNW 0.0 mm  20.8 °C 23.6 °C
Masiera di Bagnacavallo (RA) 17/08/17 05.24 20.9 °C 82 % 17.7 °C 1013.1 hPa 1.5 Km/h NNE 0.0 mm  20.9 °C 23.1 °C
Migliarino (FE) 17/08/17 05.30 21.9 °C 77 % 17.7 °C 1015.5 hPa 3.5 Km/h N 0.0 mm  21.9 °C 25.4 °C
Ponte San Pellegrino (MO) 17/08/17 05.28 21.6 °C 73 % 16.5 °C 1007.7 hPa 1.1 Km/h SW 0.0 mm  21.6 °C 25.3 °C
Riccione (RN) 17/08/17 04.45 20.8 °C 73 % 15.8 °C 1016.5 hPa 0.0 Km/h --- 0.0 mm  20.8 °C 23.7 °C
Rimini (RN) 17/08/17 05.30 22.3 °C 62 % 14.7 °C 1016.5 hPa 0.0 Km/h W 0.0 mm  22.2 °C 24.3 °C
Rimini Zona Palas (RN) 16/08/17 23.23 25.3 °C 73 % 20.0 °C 1016.8 hPa 0.0 Km/h SSE 0.0 mm  20.3 °C 29.2 °C
Santarcangelo di Romagna (RN) 17/08/17 05.11 21.2 °C 63 % 13.9 °C 1016.6 hPa 6.5 Km/h WSW 0.0 mm  21.2 °C 23.2 °C
Stiore - Monteveglio (BO) 17/08/17 05.10 20.5 °C 66 % 13.9 °C 1013.7 hPa 0.0 Km/h SE 0.0 mm  20.3 °C 23.4 °C
 
 
Regione FRIULI V.G.
Località Giorno Ora Temp. Umid. Relat. Dew Point Press. Atm. Velocità Vento Direz. Vento Precip. Temp.
Min
Temp.
Max
Budoia (PN) 17/08/17 05.30 22.9 °C 63 % 15.5 °C 1016.6 hPa 4.8 Km/h NW 0.0 mm  22.9 °C 24.2 °C
Campoformido (UD) 17/08/17 05.33 22.2 °C 68 % 16.0 °C 1017.3 hPa 4.7 Km/h NNE 0.0 mm  22.1 °C 24.1 °C
Fogliano Redipuglia (GO) 17/08/17 05.42 22.8 °C 65 % 15.9 °C 1016.8 hPa 7.7 Km/h E 0.0 mm  0.0 °C 25.8 °C
Fontanafredda (PN) 17/08/17 05.34 18.2 °C 92 % 16.9 °C 1016.4 hPa 0.7 Km/h NNW 0.0 mm  18.2 °C 22.1 °C
Gradisca d'Isonzo (GO) 17/08/17 05.34 19.3 °C 80 % 15.8 °C 1017.4 hPa 0.0 Km/h ENE 0.0 mm  19.3 °C 22.6 °C
Ovaro loc. Liariis (UD) 17/08/17 05.30 14.8 °C 88 % 12.8 °C 1019.4 hPa 0.0 Km/h --- 0.0 mm  14.7 °C 17.0 °C
Pordenone (PN) 17/08/17 05.30 21.5 °C 76 % 17.1 °C 1016.5 hPa 1.6 Km/h NNE 0.0 mm  21.5 °C 24.8 °C
Sacile (PN) 17/08/17 05.40 20.3 °C 83 % 17.3 °C 1016.5 hPa 0.0 Km/h ENE 0.0 mm  20.3 °C 23.6 °C
Staranzano (GO) 10/08/17 20.20 21.9 °C 83 % 18.9 °C 1010.4 hPa 3.2 Km/h N 4.3 mm  21.6 °C 22.1 °C
 
 
Regione LAZIO
Località Giorno Ora Temp. Umid. Relat. Dew Point Press. Atm. Velocità Vento Direz. Vento Precip. Temp.
Min
Temp.
Max
Capodimonte (VT) 17/08/17 05.30 24.8 °C 53 % 14.5 °C 1014.9 hPa 3.2 Km/h N 0.0 mm  24.7 °C 26.6 °C
Caprarola Centro Storico (VT) 17/08/17 05.32 23.2 °C 49 % 11.9 °C 1017.0 hPa 2.6 Km/h W 0.0 mm  23.2 °C 26.0 °C
Civita Castellana (VT) 17/08/17 05.33 19.9 °C 52 % 9.7 °C 1015.5 hPa 1.7 Km/h S 0.0 mm  19.9 °C 24.8 °C
Marta (VT) 17/08/17 05.35 24.9 °C 56 % 15.5 °C 1014.7 hPa 9.3 Km/h N 0.0 mm  24.7 °C 26.7 °C
Pomezia (RM) 17/08/17 05.30 24.4 °C 44 % 11.3 °C 1013.6 hPa 4.8 Km/h NNW 0.0 mm  23.0 °C 28.3 °C
Roma Prato della Signora (RM) 16/08/17 22.39 29.3 °C 56 % 19.6 °C 1013.8 hPa 0.0 Km/h W 0.0 mm  29.3 °C 36.0 °C
Ronciglione Centro (VT) 17/08/17 05.30 22.9 °C 43 % 9.7 °C 1016.0 hPa 3.2 Km/h NNW 0.0 mm  22.9 °C 26.1 °C
Ronciglione - Ponte Cuzzoli (VT) 17/08/17 05.35 22.0 °C 69 % 16.0 °C 1014.5 hPa 3.2 Km/h WSW 0.0 mm  20.6 °C 26.0 °C
S. Lorenzo Nuovo (VT) 16/08/17 23.02 25.4 °C 35 % 8.7 °C 1016.7 hPa 19.1 Km/h NNW 0.0 mm  19.9 °C 32.5 °C
Tuscania (VT) 16/08/17 22.45 25.2 °C 35 % 8.7 °C 1016.4 hPa 0.0 Km/h NE 0.0 mm  19.6 °C 35.4 °C
Valentano (VT) 17/08/17 05.10 23.4 °C 43 % 10.0 °C 1013.2 hPa 6.5 Km/h NE 0.0 mm  23.4 °C 24.7 °C
Viterbo Santa Barbara (VT) 16/08/17 22.40 24.8 °C 30 % 6.1 °C 1017.8 hPa 0.0 Km/h SSW 0.0 mm  19.0 °C 34.2 °C
Vitorchiano Pallone (VT) 16/08/17 18.40 31.3 °C 29 % 11.1 °C 1013.2 hPa 17.7 Km/h SW 0.0 mm  22.2 °C 33.9 °C
 
 
Regione LIGURIA
Località Giorno Ora Temp. Umid. Relat. Dew Point Press. Atm. Velocità Vento Direz. Vento Precip. Temp.
Min
Temp.
Max
Arenzano (GE) 17/08/17 05.33 23.1 °C 68 % 16.8 °C 1016.2 hPa 3.2 Km/h WNW 0.0 mm  22.4 °C 24.2 °C
Cosseria Lidora (SV) 17/08/17 05.30 18.2 °C 85 % 15.6 °C 1016.1 hPa 3.2 Km/h WNW 0.0 mm  18.1 °C 21.4 °C
Genova Albaro (GE) 17/08/17 05.33 22.5 °C 55 % 13.0 °C 1014.0 hPa 1.3 Km/h N 0.0 mm  22.1 °C 24.3 °C
Genova Erzelli (GE) 17/08/17 05.37 24.8 °C 64 % 17.5 °C 1015.2 hPa 6.4 Km/h N 0.0 mm  23.2 °C 25.0 °C
Loano (SV) 17/08/17 05.35 23.6 °C 63 % 16.2 °C 1016.0 hPa 3.0 Km/h S 0.0 mm  23.5 °C 24.6 °C
Moneglia loc. La Secca (GE) 13/08/17 19.52 24.3 °C 65 % 17.3 °C 1017.2 hPa 0.0 Km/h S 0.0 mm  24.3 °C 24.3 °C
Ortonovo (SP) 17/08/17 05.30 21.2 °C 71 % 15.7 °C 1015.3 hPa 5.3 Km/h SW 0.0 mm  20.3 °C 23.0 °C
Varese Ligure (SP) 17/08/17 05.10 18.8 °C 22 % -3.4 °C 1033.7 hPa 3.0 Km/h N 0.0 mm  18.6 °C 19.9 °C
 
 
Regione LOMBARDIA
Località Giorno Ora Temp. Umid. Relat. Dew Point Press. Atm. Velocità Vento Direz. Vento Precip. Temp.
Min
Temp.
Max
Besozzo (VA) 16/08/17 21.48 22.4 °C 83 % 19.4 °C 1016.1 hPa 0.0 Km/h --- 0.2 mm  18.2 °C 31.2 °C
Brebbia (VA) 16/08/17 22.40 22.3 °C 82 % 19.1 °C 1017.4 hPa 0.0 Km/h --- 0.2 mm  20.1 °C 30.6 °C
Calcinato (BS) 17/08/17 05.33 22.7 °C 70 % 17.0 °C 1019.1 hPa 3.2 Km/h E 0.0 mm  22.7 °C 25.2 °C
Cassano Magnago (VA) 17/08/17 05.41 21.1 °C 79 % 17.3 °C 1018.8 hPa 0.0 Km/h N 0.0 mm  21.1 °C 24.4 °C
Cavaria con Premezzo (VA) 17/08/17 05.33 20.8 °C 81 % 17.2 °C 1016.6 hPa 1.0 Km/h NE 0.0 mm  20.8 °C 23.7 °C
Dorno (PV) 17/08/17 05.34 20.7 °C 91 % 19.1 °C 1016.7 hPa 0.0 Km/h NNW 0.0 mm  20.7 °C 23.8 °C
Esine (BS) 17/08/17 05.34 19.9 °C 78 % 15.9 °C 1016.7 hPa 1.4 Km/h ESE 0.0 mm  19.9 °C 23.6 °C
Laxolo (BG) 17/08/17 05.38 16.5 °C 74 % 11.8 °C 1019.8 hPa 0.0 Km/h N 2.1 mm  15.7 °C 28.7 °C
Lesmo (MB) 17/08/17 05.35 18.7 °C 85 % 16.1 °C 1017.3 hPa 0.0 Km/h --- 0.0 mm  18.7 °C 21.8 °C
Lovere (BG) 17/08/17 05.21 20.4 °C 40 % 6.4 °C 1019.0 hPa 0.0 Km/h W 0.0 mm  20.4 °C 23.1 °C
Malnate San Salvatore (VA) 17/08/17 05.35 19.3 °C 88 % 17.3 °C 1018.1 hPa 1.6 Km/h NW 0.0 mm  18.3 °C 21.5 °C
Mezzana Bigli (PV) 17/08/17 05.30 19.7 °C 90 % 18.0 °C 1016.0 hPa 0.0 Km/h NW 0.0 mm  19.7 °C 22.9 °C
Montagna in Valtellina (SO) 17/08/17 05.30 18.4 °C 87 % 16.2 °C 1018.7 hPa 0.0 Km/h W 0.0 mm  18.4 °C 21.4 °C
Morbegno (SO) 17/08/17 05.30 19.4 °C 84 % 16.6 °C 1127.3 hPa 0.0 Km/h SSE 0.0 mm  19.4 °C 21.6 °C
Ostiano (CR) 17/08/17 05.28 22.8 °C 77 % 18.6 °C 1017.7 hPa 3.6 Km/h N 0.0 mm  22.8 °C 29.1 °C
Rivalta sul Mincio (MN) 17/08/17 05.34 21.9 °C 80 % 18.3 °C 1016.8 hPa 2.0 Km/h NE 0.0 mm  21.8 °C 24.9 °C
 
 
Regione MARCHE
Località Giorno Ora Temp. Umid. Relat. Dew Point Press. Atm. Velocità Vento Direz. Vento Precip. Temp.
Min
Temp.
Max
Ancona (AN) 17/08/17 05.35 23.4 °C 70 % 17.6 °C 1016.6 hPa 1.6 Km/h S 0.0 mm  21.7 °C 24.1 °C
Ca' Gallo (PU) 17/08/17 05.43 19.3 °C 69 % 13.5 °C 1013.8 hPa 2.1 Km/h WNW 0.0 mm  19.0 °C 20.8 °C
Montelabbate (PU) 14/08/17 04.56 16.6 °C 71 % 11.3 °C 1018.2 hPa 3.5 Km/h SW 0.0 mm  16.6 °C 19.6 °C
San Benedetto del Tronto (AP) 17/08/17 05.30 25.0 °C 49 % 13.5 °C 1016.0 hPa 0.0 Km/h SW 0.0 mm  24.4 °C 25.7 °C
 
 
Regione MOSELLE
Località Giorno Ora Temp. Umid. Relat. Dew Point Press. Atm. Velocità Vento Direz. Vento Precip. Temp.
Min
Temp.
Max
Seremange Erzange (Moselle) 17/08/17 05.11 14.8 °C 97 % 14.3 °C 1018.5 hPa 0.0 Km/h WSW 0.0 mm  14.8 °C 17.5 °C
 
 
Regione PIEMONTE
Località Giorno Ora Temp. Umid. Relat. Dew Point Press. Atm. Velocità Vento Direz. Vento Precip. Temp.
Min
Temp.
Max
Borgofranco d'Ivrea (TO) 17/08/17 05.34 20.9 °C 66 % 14.3 °C 1018.5 hPa 13.7 Km/h NE 0.0 mm  20.9 °C 23.1 °C
Magnano (BI) 17/08/17 05.33 17.1 °C 92 % 15.8 °C 1020.4 hPa 0.0 Km/h W 0.0 mm  17.0 °C 17.9 °C
Monasterolo Torinese (TO) 17/08/17 05.35 19.9 °C 71 % 14.5 °C 1014.6 hPa 0.0 Km/h --- 0.0 mm  19.8 °C 23.4 °C
Mongrando San Michele (BI) 17/08/17 05.30 18.6 °C 76 % 14.2 °C 1016.9 hPa 0.0 Km/h WNW 0.0 mm  17.8 °C 18.9 °C
Muzzano (BI) 17/08/17 05.20 21.6 °C 62 % 14.0 °C 1015.5 hPa 6.4 Km/h WNW 0.0 mm  21.6 °C 22.8 °C
Nichelino (TO) 17/08/17 05.40 19.9 °C 83 % 17.0 °C 1016.6 hPa 0.0 Km/h --- 0.0 mm  19.9 °C 24.1 °C
Novara (NO) 17/08/17 05.30 19.8 °C 82 % 16.6 °C 1016.9 hPa 0.0 Km/h --- 0.0 mm  19.8 °C 22.7 °C
Ostana (CN) 16/08/17 20.30 16.5 °C 78 % 12.6 °C 1015.6 hPa 0.0 Km/h NW 0.0 mm  14.8 °C 19.2 °C
Parella (TO) 17/08/17 05.27 20.4 °C 71 % 14.9 °C 1015.1 hPa 1.6 Km/h NW 0.0 mm  20.3 °C 22.1 °C
Pecetto Torinese (TO) 17/08/17 05.24 21.1 °C 69 % 15.2 °C 1019.5 hPa 0.0 Km/h NE 0.0 mm  21.0 °C 23.3 °C
Pila Valsesia (VC) 17/08/17 05.35 14.2 °C 92 % 12.9 °C 1016.3 hPa 0.0 Km/h --- 0.0 mm  14.2 °C 17.7 °C
Piovà Massaia (AT) 17/08/17 05.30 21.6 °C 74 % 16.8 °C 1015.6 hPa 0.0 Km/h NNW 0.0 mm  21.4 °C 24.3 °C
Pozzolo Formigaro (AL) 17/08/17 05.36 19.1 °C 80 % 15.6 °C 1017.8 hPa 2.2 Km/h SSE 0.0 mm  19.1 °C 23.0 °C
Pray (BI) 17/08/17 05.30 15.4 °C 93 % 14.3 °C 1017.6 hPa 0.0 Km/h --- 0.0 mm  15.4 °C 18.3 °C
Rivalba (TO) 17/08/17 05.30 18.3 °C 81 % 15.0 °C 1018.4 hPa 0.0 Km/h N 0.0 mm  18.3 °C 20.8 °C
Soriso (NO) 17/08/17 05.10 20.3 °C 75 % 15.7 °C 1017.1 hPa 1.6 Km/h WSW 0.0 mm  20.2 °C 23.4 °C
Torino Regio Parco (TO) 16/08/17 22.43 25.5 °C 64 % 18.2 °C 1018.5 hPa 4.1 Km/h E 0.0 mm  21.2 °C 31.7 °C
Valenza (AL) 17/08/17 05.42 19.9 °C 86 % 17.5 °C 1016.1 hPa 4.8 Km/h WSW 0.0 mm  19.9 °C 23.4 °C
Viozene Toria (CN) 17/08/17 05.11 15.6 °C 65 % 9.1 °C 1012.4 hPa 3.0 Km/h N 0.0 mm  15.3 °C 16.9 °C
 
 
Regione PUGLIA
Località Giorno Ora Temp. Umid. Relat. Dew Point Press. Atm. Velocità Vento Direz. Vento Precip. Temp.
Min
Temp.
Max
Acquaviva delle Fonti (BA) 17/08/17 05.33 21.0 °C 65 % 14.2 °C 1015.1 hPa 0.0 Km/h NNE 0.0 mm  20.3 °C 23.0 °C
S. Giovanni Rotondo (FG) 17/08/17 05.35 22.6 °C 47 % 10.7 °C 1014.2 hPa 17.7 Km/h NW 0.0 mm  21.7 °C 23.6 °C
Taranto (TA) 17/08/17 05.35 23.5 °C 68 % 17.3 °C 1010.2 hPa 12.4 Km/h WNW 0.0 mm  23.5 °C 27.1 °C
Torremaggiore (FG) 17/08/17 05.11 22.7 °C 57 % 13.7 °C 1014.1 hPa 3.4 Km/h O 0.0 mm  21.8 °C 22.9 °C
Vieste (FG) 17/08/17 05.10 25.9 °C 49 % 14.4 °C 1014.8 hPa 18.7 Km/h WNW 0.0 mm  25.6 °C 26.8 °C
 
 
Regione SARDEGNA
Località Giorno Ora Temp. Umid. Relat. Dew Point Press. Atm. Velocità Vento Direz. Vento Precip. Temp.
Min
Temp.
Max
Bitti (NU) 17/08/17 05.32 23.2 °C 32 % 5.5 °C 1019.7 hPa 6.5 Km/h SSW 0.0 mm  23.2 °C 26.1 °C
Bonorva (SS) 17/08/17 05.35 22.3 °C 34 % 5.7 °C 1015.7 hPa 0.0 Km/h --- 0.0 mm  21.9 °C 24.3 °C
Borore (NU) 17/08/17 05.34 21.7 °C 42 % 8.2 °C 1014.8 hPa 2.2 Km/h WSW 0.0 mm  21.7 °C 25.9 °C
Iglesias (CI) 17/08/17 05.41 23.3 °C 52 % 12.9 °C 1017.8 hPa 1.4 Km/h N 0.0 mm  23.2 °C 25.6 °C
Oristano (OR) 17/08/17 05.32 21.8 °C 81 % 18.4 °C 1015.5 hPa 0.0 Km/h ENE 0.0 mm  21.8 °C 24.2 °C
Orosei (NU) 17/08/17 05.36 24.6 °C 47 % 12.5 °C 1015.9 hPa 3.2 Km/h NNW 0.0 mm  24.1 °C 25.6 °C
San Vito (CA) 17/08/17 05.11 24.3 °C 52 % 13.8 °C 1009.9 hPa 0.0 Km/h N 0.0 mm  23.0 °C 24.4 °C
Sinnai (CA) 16/08/17 23.55 25.9 °C 50 % 14.7 °C 1017.0 hPa 0.0 Km/h NNE 0.0 mm  21.9 °C 31.9 °C
 
 
Regione SICILIA
Località Giorno Ora Temp. Umid. Relat. Dew Point Press. Atm. Velocità Vento Direz. Vento Precip. Temp.
Min
Temp.
Max
Barcellona P.G. Centro (ME) 17/08/17 05.33 23.2 °C 59 % 14.8 °C 1015.0 hPa 0.0 Km/h ESE 0.0 mm  23.2 °C 24.9 °C
Barcellona Pozzo di Gotto (ME) 17/08/17 05.33 23.8 °C 63 % 16.3 °C 1014.0 hPa 3.7 Km/h S 0.0 mm  23.5 °C 25.4 °C
Brolo c/da Parrazzà (ME) 17/08/17 05.35 24.3 °C 45 % 11.6 °C 1015.5 hPa 6.0 Km/h SE 0.0 mm  23.1 °C 24.7 °C
Buccheri (SR) 17/08/17 05.04 21.1 °C 60 % 13.0 °C 1016.0 hPa 0.0 Km/h NNE 0.0 mm  20.0 °C 21.2 °C
Caltabellotta (AG) 17/08/17 05.30 22.7 °C 40 % 8.4 °C 1013.9 hPa 0.0 Km/h ESE 0.0 mm  22.6 °C 23.9 °C
Cammarata (AG) 17/08/17 05.33 23.3 °C 31 % 5.2 °C 1013.9 hPa 9.7 Km/h W 0.0 mm  23.0 °C 24.0 °C
Cefalù (PA) 17/08/17 02.22 23.9 °C 71 % 18.3 °C 1013.4 hPa 3.0 Km/h S 0.0 mm  23.5 °C 24.8 °C
Mirabella Imbaccari (CT) 17/08/17 03.39 23.9 °C 39 % 9.1 °C 1014.4 hPa 1.9 Km/h ENE 0.0 mm  23.3 °C 25.3 °C
Pace del Mela (ME) 17/08/17 05.30 22.8 °C 67 % 16.4 °C 1016.6 hPa 3.5 Km/h ESE 0.0 mm  22.7 °C 24.6 °C
Pedara (CT) 17/08/17 04.30 20.9 °C 46 % 8.8 °C 1014.5 hPa 0.0 Km/h NNW 0.0 mm  20.0 °C 22.4 °C
Piraino contr. Fiumara (ME) 17/08/17 05.35 21.3 °C 57 % 12.5 °C 1015.4 hPa 5.0 Km/h NE 0.0 mm  21.0 °C 22.1 °C
San Cataldo (CL) 17/08/17 05.10 22.4 °C 34 % 5.8 °C 1015.8 hPa 7.0 Km/h ENE 0.0 mm  22.0 °C 22.8 °C
San Giovanni la Punta Trappeto (CT) 17/08/17 05.35 23.2 °C 52 % 12.8 °C 1014.8 hPa 4.8 Km/h NE 0.0 mm  23.1 °C 23.7 °C
 
 
Regione TOSCANA
Località Giorno Ora Temp. Umid. Relat. Dew Point Press. Atm. Velocità Vento Direz. Vento Precip. Temp.
Min
Temp.
Max
Avenza-Carrara (MS) 17/08/17 05.25 21.1 °C 58 % 12.5 °C 1018.2 hPa 0.0 Km/h N 0.0 mm  21.1 °C 23.3 °C
Carmignano loc. Seano (PO) 17/08/17 05.34 18.9 °C 69 % 13.1 °C 1015.9 hPa 1.7 Km/h SSW 0.0 mm  18.9 °C 22.2 °C
Castelnuovo V.C. (PI) 17/08/17 05.31 18.1 °C 64 % 11.2 °C 1015.2 hPa 2.0 Km/h S 0.0 mm  18.0 °C 19.4 °C
Isola d'Elba Marina di Campo (LI) 17/08/17 05.15 25.4 °C 57 % 16.3 °C 589.1 hPa 17.7 Km/h NNE 0.0 mm  24.8 °C 26.3 °C
Massarosa (LU) 17/08/17 05.34 20.1 °C 76 % 15.7 °C 1004.9 hPa 0.0 Km/h W 0.0 mm  20.1 °C 21.3 °C
Montespertoli (FI) 17/08/17 00.06 22.8 °C 53 % 12.7 °C 1016.8 hPa 2.3 Km/h SW 0.0 mm  22.8 °C 22.8 °C
Montopoli in val d'Arno Loc. Capanne (PI) 17/08/17 05.30 16.8 °C 91 % 15.3 °C 1016.5 hPa 4.4 Km/h E 0.0 mm  0.0 °C 20.4 °C
Pisa zona I Passi (PI) 16/08/17 21.45 24.0 °C 54 % 14.1 °C 1018.3 hPa 0.0 Km/h NE 0.0 mm  17.8 °C 30.4 °C
Torri (FI) 17/08/17 05.30 17.5 °C 70 % 12.0 °C 1015.3 hPa 0.0 Km/h --- 0.0 mm  17.4 °C 21.2 °C
Torrita di Siena (SI) 17/08/17 05.30 15.8 °C 70 % 10.4 °C 1016.6 hPa 0.0 Km/h --- 0.0 mm  15.8 °C 24.1 °C
 
 
Regione TRENTINO A. A.
Località Giorno Ora Temp. Umid. Relat. Dew Point Press. Atm. Velocità Vento Direz. Vento Precip. Temp.
Min
Temp.
Max
Ala (TN) 17/08/17 05.33 20.1 °C 75 % 15.5 °C 1018.1 hPa 0.0 Km/h SSE 0.0 mm  19.9 °C 22.8 °C
Avio (TN) 17/08/17 05.33 21.8 °C 70 % 16.1 °C 1018.2 hPa 2.2 Km/h S 0.0 mm  21.8 °C 23.7 °C
Besenello (TN) 17/08/17 05.33 20.0 °C 73 % 15.0 °C 1019.6 hPa 6.3 Km/h W 0.0 mm  19.8 °C 22.2 °C
Borgo Valsugana (TN) 17/08/17 05.44 15.6 °C 88 % 13.6 °C 1019.9 hPa 0.0 Km/h NNW 0.0 mm  15.6 °C 18.9 °C
Calliano (TN) 17/08/17 05.33 19.4 °C 77 % 15.3 °C 1018.3 hPa 11.3 Km/h NNE 0.0 mm  19.2 °C 22.2 °C
Fiavè loc. Ballino (TN) 17/08/17 05.34 16.4 °C 84 % 13.7 °C 1018.7 hPa 5.8 Km/h W 0.0 mm  16.1 °C 18.6 °C
Gardolo (TN) 17/08/17 05.34 16.6 °C 88 % 14.6 °C 1020.3 hPa 0.0 Km/h NNE 0.0 mm  16.7 °C 20.6 °C
Lavis (TN) 17/08/17 05.30 16.7 °C 87 % 14.4 °C 1020.1 hPa 3.2 Km/h WNW 0.0 mm  16.7 °C 20.4 °C
Margone (TN) 17/08/17 05.30 16.9 °C 81 % 13.7 °C 1020.6 hPa 6.5 Km/h N 0.0 mm  16.9 °C 18.9 °C
Martignano (TN) 17/08/17 05.35 18.2 °C 80 % 14.7 °C 1017.5 hPa 0.0 Km/h E 0.0 mm  18.1 °C 21.6 °C
Massone di Arco (TN) 17/08/17 05.34 21.1 °C 73 % 16.1 °C 1018.7 hPa 4.0 Km/h N 0.0 mm  21.1 °C 23.8 °C
Miola di Piné (TN) 17/08/17 05.30 14.4 °C 89 % 12.6 °C 1018.9 hPa 4.8 Km/h ENE 0.0 mm  14.3 °C 17.3 °C
Padergnone (TN) 17/08/17 05.15 20.1 °C 79 % 16.4 °C 1018.8 hPa 5.2 Km/h NNE 0.0 mm  20.1 °C 22.2 °C
Taio Mollaro (TN) 17/08/17 05.10 14.9 °C 92 % 13.6 °C 1022.4 hPa 0.0 Km/h SSW 0.0 mm  14.8 °C 16.7 °C
Trambileno (TN) 17/08/17 05.32 15.8 °C 83 % 12.8 °C 1026.6 hPa 0.0 Km/h N 0.0 mm  15.8 °C 18.2 °C
Trento (TN) 17/08/17 05.11 20.1 °C 74 % 15.3 °C 1018.0 hPa 9.7 Km/h NNE 0.0 mm  20.0 °C 23.4 °C
Vattaro fraz. Pian dei Pradi (TN) 17/08/17 05.09 14.9 °C 87 % 12.7 °C 1019.3 hPa 0.0 Km/h NNW 0.0 mm  14.9 °C 17.4 °C
 
 
Regione UMBRIA
Località Giorno Ora Temp. Umid. Relat. Dew Point Press. Atm. Velocità Vento Direz. Vento Precip. Temp.
Min
Temp.
Max
Castiglione del Lago (PG) 17/08/17 05.30 16.3 °C 68 % 10.4 °C 1017.4 hPa 0.0 Km/h --- 0.0 mm  16.3 °C 23.9 °C
Foligno (PG) 17/08/17 05.20 21.6 °C 52 % 11.3 °C 1015.3 hPa 0.0 Km/h ENE 0.0 mm  21.6 °C 26.4 °C
Orvieto (TR) 17/08/17 00.16 24.6 °C 35 % 8.1 °C 1015.1 hPa 1.9 Km/h S 0.0 mm  24.5 °C 24.6 °C
Todi (PG) 17/08/17 05.35 21.9 °C 48 % 10.4 °C 1014.4 hPa 2.0 Km/h NNW 0.0 mm  21.7 °C 26.1 °C
 
 
Regione VALLE DAOSTA
Località Giorno Ora Temp. Umid. Relat. Dew Point Press. Atm. Velocità Vento Direz. Vento Precip. Temp.
Min
Temp.
Max
Colle del Piccolo San Bernardo La Thuile (AO) 17/08/17 05.38 10.4 °C 75 % 6.1 °C 1017.8 hPa 6.4 Km/h SSE 0.0 mm  9.8 °C 10.6 °C
 
 
Regione VENETO
Località Giorno Ora Temp. Umid. Relat. Dew Point Press. Atm. Velocità Vento Direz. Vento Precip. Temp.
Min
Temp.
Max
Abano (PD) 17/08/17 05.35 21.4 °C 75 % 16.8 °C 1014.9 hPa 1.6 Km/h NW 0.0 mm  21.4 °C 24.9 °C
Alleghe (BL) 17/08/17 05.33 13.8 °C 82 % 10.8 °C 1010.0 hPa 3.2 Km/h ENE 0.0 mm  13.5 °C 15.6 °C
Alleghe Lago (BL) 17/08/17 05.34 13.9 °C 86 % 11.6 °C 1023.1 hPa 9.8 Km/h E 0.0 mm  13.6 °C 16.2 °C
Arquà Polesine (RO) 17/08/17 05.33 21.6 °C 74 % 16.8 °C 1018.0 hPa 0.0 Km/h NW 0.0 mm  20.4 °C 23.7 °C
Arzignano loc. Castello (VI) 16/08/17 23.00 23.1 °C 73 % 18.0 °C 1016.4 hPa 0.0 Km/h WNW 0.0 mm  20.6 °C 32.1 °C
Arzignano Pugnello (VI) 17/08/17 05.33 22.3 °C 68 % 16.1 °C 1014.9 hPa 0.0 Km/h W 0.0 mm  22.0 °C 23.3 °C
Arzignano San Bortolo (VI) 17/08/17 05.42 24.4 °C 60 % 16.1 °C 1014.4 hPa 3.2 Km/h NW 0.0 mm  24.2 °C 29.6 °C
Arzignano Tezze (VI) 11/08/17 22.13 19.3 °C 64 % 12.3 °C 1011.1 hPa 0.0 Km/h W 0.0 mm  19.1 °C 29.4 °C
Asiago Rifugio Val Formica (VI) 17/08/17 05.43 9.0 °C 93 % 7.9 °C 1019.2 hPa 0.0 Km/h N 0.0 mm  8.9 °C 10.6 °C
Badia Calavena loc. San Valentino (VR) 17/08/17 05.33 20.3 °C 62 % 12.8 °C 1014.4 hPa 4.8 Km/h NNE 0.0 mm  20.3 °C 22.1 °C
Bassano del Grappa (VI) 16/08/17 08.20 23.7 °C 63 % 16.2 °C 1004.2 hPa 4.8 Km/h ENE 0.0 mm  22.2 °C 23.7 °C
Belluno Castion (BL) 17/08/17 05.30 15.2 °C 94 % 14.2 °C 1018.0 hPa 0.0 Km/h --- 0.0 mm  15.1 °C 17.3 °C
Bresega (PD) 13/08/17 21.43 24.1 °C 54 % 13.9 °C 1017.0 hPa 0.0 Km/h E 0.0 mm  24.1 °C 31.9 °C
Brugine2 (PD) 17/08/17 05.32 21.2 °C 81 % 17.8 °C 1016.6 hPa 0.0 Km/h NNE 0.0 mm  20.1 °C 22.7 °C
Camposampiero (PD) 17/08/17 05.39 21.0 °C 73 % 16.0 °C 1017.0 hPa 3.7 Km/h NW 0.0 mm  21.0 °C 23.4 °C
Caprino (VR) 17/08/17 05.33 21.7 °C 73 % 16.7 °C 1015.1 hPa 0.0 Km/h NNE 0.0 mm  21.7 °C 24.6 °C
Carceri (PD) 17/08/17 05.34 21.4 °C 73 % 16.1 °C 1016.1 hPa 3.2 Km/h N 0.0 mm  21.0 °C 24.2 °C
Cartigliano (VI) 17/08/17 05.33 22.3 °C 68 % 16.1 °C 1015.8 hPa 0.0 Km/h N 0.0 mm  22.2 °C 24.2 °C
Cartura (PD) 17/08/17 05.34 20.2 °C 77 % 16.1 °C 1015.3 hPa 2.4 Km/h NNW 0.0 mm  20.2 °C 22.9 °C
Casotto (VI) 17/08/17 05.42 17.1 °C 83 % 14.4 °C 1017.2 hPa 0.0 Km/h NNW 0.0 mm  17.0 °C 18.8 °C
Castel d'Azzano (VR) 17/08/17 05.25 21.7 °C 75 % 17.1 °C 1095.5 hPa 0.0 Km/h --- 0.0 mm  21.7 °C 25.1 °C
Castelfranco Veneto (TV) 17/08/17 05.35 20.8 °C 82 % 17.6 °C 1016.3 hPa 0.0 Km/h --- 0.0 mm  20.8 °C 23.5 °C
Castelfranco Veneto2 (TV) 17/08/17 05.35 21.5 °C 77 % 17.3 °C 1017.2 hPa 0.0 Km/h NNW 0.0 mm  21.1 °C 23.8 °C
Castelgomberto (VI) 14/08/17 12.01 27.6 °C 44 % 14.3 °C 1019.2 hPa 7.0 Km/h ENE 0.0 mm  17.9 °C 27.6 °C
Cerea (VR) 17/08/17 00.00 24.6 °C 68 % 18.3 °C 1017.2 hPa 4.8 Km/h NE 0.0 mm  24.5 °C 24.6 °C
Cerea2 (VR) 17/08/17 05.35 21.9 °C 63 % 14.6 °C 1015.1 hPa 1.8 Km/h NNW 0.0 mm  21.9 °C 24.9 °C
Cima Grappa (TV) 17/08/17 05.33 13.2 °C 86 % 10.9 °C 1019.7 hPa 5.2 Km/h SE 0.0 mm  13.2 °C 14.1 °C
Cismon del Grappa loc. Corlo (VI) 17/08/17 05.34 16.8 °C 89 % 15.0 °C 1021.1 hPa 4.6 Km/h ENE 0.0 mm  16.7 °C 20.0 °C
Cittadella (PD) 16/08/17 22.37 26.1 °C 60 % 17.7 °C 1016.3 hPa 0.6 Km/h SE 0.0 mm  21.6 °C 32.6 °C
Cogollo del Cengio (VI) 17/08/17 05.29 19.3 °C 74 % 14.5 °C 1017.9 hPa 12.4 Km/h NW 0.0 mm  19.3 °C 21.1 °C
Colle S. Lucia Posalz (BL) 17/08/17 05.34 12.9 °C 77 % 9.0 °C 1031.3 hPa 0.0 Km/h SSW 0.0 mm  12.7 °C 14.5 °C
Cologna Veneta Sant'Andrea (VR) 17/08/17 05.35 19.7 °C 81 % 16.3 °C 1016.8 hPa 0.0 Km/h --- 0.0 mm  19.4 °C 24.2 °C
Colognola ai Colli (VR) 17/08/17 05.20 19.6 °C 80 % 16.1 °C 1018.0 hPa 6.4 Km/h N 0.0 mm  19.2 °C 24.2 °C
Contrada Dosso Gervasio (VR) 17/08/17 05.30 20.1 °C 62 % 12.2 °C 1015.9 hPa 3.0 Km/h N 0.0 mm  20.0 °C 21.2 °C
Corrubio di S. Anna d'Alfaedo (VR) 17/08/17 05.40 19.9 °C 65 % 13.2 °C 1017.8 hPa 0.0 Km/h --- 0.0 mm  19.9 °C 21.7 °C
Costa di Vittorio Veneto (TV) 17/08/17 05.40 22.5 °C 68 % 16.3 °C 1016.1 hPa 1.4 Km/h SW 0.0 mm  21.6 °C 24.1 °C
Crespano del Grappa (TV) 17/08/17 05.41 22.9 °C 61 % 15.0 °C 1016.8 hPa 4.0 Km/h NNE 0.0 mm  21.8 °C 24.0 °C
Dossobuono (VR) 17/08/17 05.34 22.8 °C 68 % 16.6 °C 1018.5 hPa 3.2 Km/h NNW 0.0 mm  22.8 °C 25.4 °C
Falzè di Piave (TV) 12/08/17 09.55 22.1 °C 64 % 15.0 °C 1014.2 hPa 0.0 Km/h --- 0.2 mm  14.2 °C 22.1 °C
Farra di Soligo (TV) 17/08/17 05.33 23.5 °C 63 % 16.0 °C 1016.9 hPa 0.0 Km/h NNW 0.0 mm  22.3 °C 24.8 °C
Favaro Veneto (VE) 17/08/17 05.30 21.3 °C 76 % 16.9 °C 1016.8 hPa 1.6 Km/h NNW 0.0 mm  21.3 °C 23.7 °C
Feltre Celarda (BL) 17/08/17 05.33 14.9 °C 93 % 13.8 °C 1017.3 hPa 0.0 Km/h N 0.0 mm  14.9 °C 18.1 °C
Ferrara di M.B. (VR) 17/08/17 04.15 14.5 °C 80 % 11.1 °C 1015.5 hPa 0.0 Km/h N 0.0 mm  14.4 °C 16.0 °C
Gallio (VI) 17/08/17 05.40 13.6 °C 88 % 11.7 °C 1018.8 hPa 0.0 Km/h N 0.0 mm  13.3 °C 14.0 °C
Giazza (VR) 17/08/17 03.10 16.6 °C 88 % 14.6 °C 1017.7 hPa 0.0 Km/h N 0.0 mm  15.8 °C 16.6 °C
Jesolo (VE) 17/08/17 02.00 22.0 °C 0 % 0.0 °C 1013.8 hPa 3.2 Km/h NNW 0.0 mm  21.9 °C 22.6 °C
Legnago (VR) 17/08/17 05.35 21.6 °C 76 % 17.2 °C 1016.9 hPa 0.0 Km/h --- 0.0 mm  21.6 °C 23.8 °C
Lugagnano (VR) 17/08/17 05.34 22.2 °C 73 % 17.2 °C 1015.4 hPa 0.0 Km/h NNE 0.0 mm  21.9 °C 25.2 °C
Lusiana Sciessere (VI) 17/08/17 05.23 20.5 °C 64 % 13.5 °C 1017.8 hPa 0.0 Km/h ENE 0.0 mm  20.2 °C 22.0 °C
Marano Vicentino2 (VI) 17/08/17 05.30 20.1 °C 73 % 15.1 °C 1017.4 hPa 0.0 Km/h ENE 0.0 mm  19.6 °C 21.8 °C
Marostica Valle San Floriano (VI) 17/08/17 05.33 20.3 °C 75 % 15.6 °C 1017.7 hPa 0.0 Km/h ENE 0.0 mm  20.3 °C 21.8 °C
Mazzurega (VR) 17/08/17 05.27 21.6 °C 66 % 15.0 °C 1017.8 hPa 3.2 Km/h S 0.0 mm  21.6 °C 24.4 °C
Merlara (PD) 17/08/17 05.35 20.7 °C 74 % 15.9 °C 1015.9 hPa 0.0 Km/h --- 0.0 mm  20.0 °C 23.7 °C
Molina (VR) 16/08/17 00.51 17.5 °C 70 % 11.9 °C 1019.2 hPa 3.5 Km/h NNE 0.0 mm  17.5 °C 18.1 °C
Montebello Vicentino loc. Selva (VI) 17/08/17 05.30 25.1 °C 42 % 11.3 °C 1017.9 hPa 7.4 Km/h NNE 0.0 mm  25.1 °C 26.0 °C
Montecchio Maggiore La Valle (VI) 17/08/17 05.25 22.3 °C 1 % -36.4 °C 1011.7 hPa 1.8 Km/h ENE 0.0 mm  21.6 °C 23.8 °C
Montecchio Maggiore Sant'Urbano (VI) 17/08/17 05.23 23.1 °C 54 % 13.2 °C 1022.6 hPa 5.0 Km/h NW 0.0 mm  23.1 °C 24.5 °C
Monteforte d'Alpone (VR) 17/08/17 05.35 20.7 °C 74 % 15.9 °C 1015.3 hPa 6.4 Km/h NE 0.0 mm  20.7 °C 23.7 °C
Montorso Vicentino (VI) 17/08/17 05.30 23.1 °C 64 % 15.9 °C 1016.4 hPa 0.0 Km/h NNW 0.0 mm  23.0 °C 23.9 °C
Onara extraurbana (PD) 13/08/17 21.52 24.2 °C 64 % 17.0 °C 1017.3 hPa 0.0 Km/h ESE 0.0 mm  15.5 °C 31.9 °C
Oppeano (VR) 15/08/17 22.20 25.1 °C 59 % 16.5 °C 1015.4 hPa 0.0 Km/h ENE 0.0 mm  18.2 °C 34.7 °C
Pastrengo (VR) 17/08/17 05.26 22.6 °C 66 % 15.9 °C -3386.0 hPa 2.4 Km/h N 0.0 mm  22.6 °C 24.8 °C
Pastrengo Cornè (VR) 17/08/17 05.36 21.7 °C 72 % 16.4 °C 1015.7 hPa 0.0 Km/h E 0.0 mm  21.6 °C 24.6 °C
Pedemonte (VR) 17/08/17 05.35 20.6 °C 74 % 15.8 °C 1016.5 hPa 0.0 Km/h N 0.0 mm  20.6 °C 24.1 °C
Pian di Castagné (VR) 16/08/17 00.28 24.2 °C 55 % 14.6 °C 1017.2 hPa 4.8 Km/h ENE 0.0 mm  24.1 °C 24.2 °C
Pojana Maggiore Cagnano (VI) 17/08/17 05.21 19.4 °C 82 % 16.2 °C 1016.8 hPa 1.1 Km/h NE 0.0 mm  19.4 °C 23.3 °C
Ponte San Nicolò (PD) 17/08/17 05.27 22.7 °C 70 % 16.9 °C 1016.5 hPa 1.6 Km/h NNE 0.0 mm  22.7 °C 25.7 °C
Rifugio Bocca di Selva (VR) 17/08/17 05.30 15.0 °C 74 % 10.4 °C 1018.3 hPa 16.1 Km/h E 0.0 mm  15.0 °C 16.3 °C
Rifugio Fiori del Baldo (VR) 15/08/17 21.11 16.3 °C 95 % 15.8 °C 1026.0 hPa 18.4 Km/h W 0.0 mm  0.0 °C 0.0 °C
Rifugio Primaneve (VR) 17/08/17 05.27 13.8 °C 77 % 9.9 °C 1018.8 hPa 6.4 Km/h NNE 0.0 mm  13.4 °C 14.5 °C
Romano d'Ezzelino Fellette (VI) 17/08/17 05.31 20.4 °C 73 % 15.4 °C 1021.6 hPa 0.0 Km/h N 0.0 mm  20.1 °C 22.6 °C
Rosolina (RO) 17/08/17 05.25 19.8 °C 89 % 17.9 °C 1016.5 hPa 1.6 Km/h NW 0.0 mm  19.8 °C 22.0 °C
S. Giovanni Ilarione2 (VR) 17/08/17 05.35 20.8 °C 74 % 16.0 °C 1016.4 hPa 3.2 Km/h WNW 0.0 mm  20.4 °C 24.0 °C
S. Giovanni Lupatoto (VR) 17/08/17 05.35 22.7 °C 67 % 16.2 °C 1016.5 hPa 0.0 Km/h NNE 0.0 mm  22.3 °C 25.0 °C
S. Lorenzo di Vittorio Veneto (TV) 17/08/17 05.30 21.4 °C 72 % 16.1 °C 1017.6 hPa 19.3 Km/h NNW 0.0 mm  20.9 °C 23.9 °C
S. Maria di Zevio Loc. 3 Ponti (VR) 17/08/17 05.30 20.8 °C 77 % 16.7 °C 1018.2 hPa 2.0 Km/h NW 0.0 mm  20.1 °C 24.0 °C
S. Maria Maddalena (RO) 17/08/17 05.25 22.2 °C 75 % 17.8 °C 1015.7 hPa 1.7 Km/h NNE 0.0 mm  21.9 °C 24.2 °C
S. Martino Lupari (PD) 17/08/17 01.45 22.7 °C 73 % 17.6 °C 600.0 hPa 0.0 Km/h E 0.0 mm  22.7 °C 23.4 °C
S. Rocco di Villabalzana (VI) 17/08/17 05.13 22.3 °C 67 % 16.1 °C 1016.6 hPa 3.2 Km/h ENE 0.0 mm  21.4 °C 23.6 °C
S. Zeno di Mont. Prada (VR) 17/08/17 05.30 15.0 °C 87 % 12.9 °C 1015.9 hPa 0.0 Km/h --- 0.0 mm  15.0 °C 17.2 °C
Salcedo (VI) 17/08/17 05.10 22.6 °C 56 % 13.4 °C 1018.8 hPa 3.9 Km/h NNW 0.0 mm  21.9 °C 24.2 °C
San Nazario (VI) 17/08/17 05.36 20.2 °C 75 % 15.6 °C 1018.2 hPa 11.1 Km/h NE 0.0 mm  20.2 °C 22.2 °C
San Pietro in Cariano (VR) 17/08/17 05.09 22.4 °C 70 % 16.7 °C 1019.2 hPa 2.4 Km/h W 0.0 mm  22.3 °C 24.8 °C
San Zeno di Mont. Loc. Castello (VR) 17/08/17 05.10 19.2 °C 72 % 13.9 °C 1016.3 hPa 10.0 Km/h W 0.0 mm  19.1 °C 22.2 °C
Schio (VI) 17/08/17 05.20 20.9 °C 72 % 15.7 °C 1018.2 hPa 4.8 Km/h NW 0.0 mm  20.9 °C 22.2 °C
Schio Monte Magré (VI) 17/08/17 05.11 20.0 °C 77 % 15.8 °C 0.0 hPa 6.4 Km/h W 0.0 mm  20.0 °C 21.0 °C
Selva di Progno (VR) 17/08/17 05.42 -573.3 °C 255 % -73.3 °C 1017.5 hPa -1000.0 Km/h N 0.0 mm  -573.3 °C -573.3 °C
Soave Borgo Bassano (VR) 17/08/17 05.35 20.8 °C 78 % 16.8 °C 1016.7 hPa 0.0 Km/h W 0.0 mm  20.8 °C 24.3 °C
Sona Loc. La Colombara (VR) 17/08/17 05.00 20.8 °C 77 % 16.1 °C 1013.7 hPa 2.0 Km/h N 0.0 mm  18.6 °C 22.4 °C
Tombolo (PD) 17/08/17 05.11 22.2 °C 72 % 16.9 °C 1017.0 hPa 0.2 Km/h NW 0.0 mm  22.1 °C 24.5 °C
Tregnago Loc. Centro (VR) 17/08/17 05.35 21.9 °C 63 % 14.6 °C 1011.0 hPa 6.4 Km/h NE 0.0 mm  21.9 °C 24.2 °C
Treviso (TV) 17/08/17 05.11 21.0 °C 75 % 16.4 °C 1012.0 hPa 1.0 Km/h NO 0.0 mm  21.0 °C 23.2 °C
Val Lastaro (VI) 17/08/17 05.04 11.4 °C 96 % 10.6 °C 1018.7 hPa 0.0 Km/h NNW 0.0 mm  11.2 °C 13.7 °C
Valdobbiadene San Pietro di Barbozza (TV) 17/08/17 05.30 24.9 °C 52 % 14.4 °C 1016.4 hPa 11.3 Km/h NNE 0.0 mm  22.4 °C 25.7 °C
Valli del Pasubio loc. Gisbenti (VI) 17/08/17 05.11 16.5 °C 79 % 12.8 °C 974.0 hPa 3.0 Km/h NW 0.0 mm  16.5 °C 17.4 °C
Verona Bgo Venezia (iz3sly) (VR) 17/08/17 05.42 22.0 °C 64 % 14.9 °C 1015.8 hPa 0.0 Km/h ESE 0.0 mm  21.9 °C 24.2 °C
Verona L'Arena (VR) 17/08/17 05.10 24.6 °C 60 % 16.1 °C 1016.8 hPa 5.0 Km/h W 0.0 mm  24.6 °C 27.0 °C
Vestenanova (VR) 17/08/17 05.11 20.5 °C 68 % 14.4 °C 1013.3 hPa 0.0 Km/h NW 0.0 mm  20.5 °C 22.1 °C
Vicenza Campedello (VI) 17/08/17 05.16 18.0 °C 87 % 16.1 °C 1018.1 hPa 0.0 Km/h NNW 0.0 mm  18.0 °C 20.7 °C
Vicenza Moracchino (VI) 17/08/17 05.11 20.0 °C 82 % 16.8 °C 1016.3 hPa 4.8 Km/h WNW 0.0 mm  19.5 °C 22.6 °C
Vicenza Pecori Giraldi (VI) 17/08/17 05.02 22.7 °C 30 % 21.5 °C 1024.0 hPa 0.0 Km/h NO 0.0 mm  10.1 °C 48.6 °C
Vicenza S. Lazzaro (VI) 17/08/17 05.11 22.1 °C 72 % 16.7 °C 1016.1 hPa 0.0 Km/h E 0.0 mm  21.6 °C 24.2 °C
Vicenza San Gaetano (VI) 16/08/17 22.46 24.2 °C 74 % 19.3 °C 1017.1 hPa 0.0 Km/h ENE 0.0 mm  19.4 °C 31.9 °C
Vidor (TV) 17/08/17 05.36 17.8 °C 85 % 15.3 °C 1016.2 hPa 0.0 Km/h NW 0.0 mm  17.8 °C 20.9 °C
Vigasio (VR) 17/08/17 05.20 21.6 °C 80 % 18.0 °C 1015.3 hPa 0.0 Km/h E 0.0 mm  21.1 °C 25.2 °C
Vittorio Veneto (TV) 17/08/17 00.20 25.2 °C 60 % 16.8 °C 1016.5 hPa 0.0 Km/h NNW 0.0 mm  24.9 °C 25.2 °C
Vittorio Veneto Parco Fenderl (TV) 17/08/17 00.20 24.7 °C 63 % 17.2 °C 1018.8 hPa 14.5 Km/h NNE 0.0 mm  24.6 °C 24.7 °C
Volpago del Montello (TV) 17/08/17 05.30 19.6 °C 83 % 16.6 °C 1017.1 hPa 0.0 Km/h --- 0.0 mm  19.4 °C 21.6 °C
 
 
 
(*) = Precipitazioni nelle ultime 24h.
Dati non aggiornati nell'ultima ora.
   
In collaborazione con:
 
Top! Top!